createdAt,value
2022-09-20T00:03:03.325Z,92.97
2022-09-20T00:08:11.015Z,92.82
2022-09-20T00:13:14.532Z,92.38
2022-09-20T00:18:17.416Z,92.22
2022-09-20T00:23:20.572Z,91.71
2022-09-20T00:28:23.581Z,91.54
2022-09-20T00:33:49.836Z,91.38
2022-09-20T00:39:02.061Z,90.95
2022-09-20T00:44:43.683Z,90.66
2022-09-20T00:49:46.893Z,90.65
2022-09-20T00:54:51.268Z,90.48
2022-09-20T00:59:54.880Z,90.31
2022-09-20T01:04:58.331Z,90.42
2022-09-20T01:10:01.303Z,90.32
2022-09-20T01:15:06.501Z,90.36
2022-09-20T01:20:18.171Z,90.44
2022-09-20T01:25:57.760Z,90.57
2022-09-20T01:31:39.705Z,90.54
2022-09-20T01:36:52.137Z,90.71
2022-09-20T01:42:00.266Z,90.78
2022-09-20T01:47:39.373Z,90.77
2022-09-20T01:53:38.086Z,90.59
2022-09-20T01:59:30.332Z,90.27
2022-09-20T02:05:40.714Z,90.15
2022-09-20T02:11:05.371Z,89.69
2022-09-20T02:16:49.904Z,89.65
2022-09-20T02:22:26.780Z,89.81
2022-09-20T02:28:22.790Z,89.93
2022-09-20T02:33:43.797Z,90.13
2022-09-20T02:39:08.082Z,90.12
2022-09-20T02:44:28.801Z,90.15
2022-09-20T02:50:09.294Z,90.13
2022-09-20T02:55:18.767Z,90.12
2022-09-20T03:00:29.068Z,89.82
2022-09-20T03:06:05.829Z,89.82
2022-09-20T03:11:56.450Z,89.61
2022-09-20T03:17:48.532Z,89.79
2022-09-20T03:23:50.218Z,89.72
2022-09-20T03:29:23.487Z,89.53
2022-09-20T03:35:17.103Z,89.44
2022-09-20T03:40:46.183Z,89.39
2022-09-20T03:46:39.129Z,89.30
2022-09-20T03:51:48.947Z,89.33
2022-09-20T03:57:27.297Z,89.43
2022-09-20T04:03:02.379Z,89.19
2022-09-20T04:08:14.177Z,89.26
2022-09-20T04:14:17.436Z,89.14
2022-09-20T04:19:45.722Z,89.10
2022-09-20T04:25:07.409Z,88.83
2022-09-20T04:30:22.041Z,88.90
2022-09-20T04:35:55.367Z,88.79
2022-09-20T04:41:37.961Z,89.13
2022-09-20T04:47:07.121Z,89.51
2022-09-20T04:52:44.641Z,89.79
2022-09-20T04:58:25.507Z,89.99
2022-09-20T05:04:14.729Z,90.25
2022-09-20T05:09:38.490Z,90.48
2022-09-20T05:14:59.028Z,90.93
2022-09-20T05:20:48.595Z,91.34
2022-09-20T05:26:15.985Z,91.35
2022-09-20T05:31:44.929Z,91.41
2022-09-20T05:37:21.412Z,91.46
2022-09-20T05:42:54.349Z,91.00
2022-09-20T05:48:23.152Z,90.15
2022-09-20T05:53:56.835Z,89.33
2022-09-20T05:59:20.862Z,89.11
2022-09-20T06:04:43.132Z,89.59
2022-09-20T06:10:04.472Z,88.92
2022-09-20T06:15:26.338Z,88.57
2022-09-20T06:20:50.761Z,88.19
2022-09-20T06:26:07.792Z,87.95
2022-09-20T06:31:11.488Z,86.98
2022-09-20T06:37:04.879Z,86.42
2022-09-20T06:42:10.224Z,85.38
2022-09-20T06:47:15.359Z,84.36
2022-09-20T06:52:23.077Z,84.07
2022-09-20T06:57:40.117Z,83.02
2022-09-20T07:02:43.798Z,82.22
2022-09-20T07:07:47.632Z,81.49
2022-09-20T07:12:50.475Z,79.77
2022-09-20T07:17:53.590Z,80.15
2022-09-20T07:22:56.429Z,79.87
2022-09-20T07:27:59.751Z,78.59
2022-09-20T07:33:02.599Z,77.71
2022-09-20T07:38:05.644Z,76.09
2022-09-20T07:43:11.211Z,74.78
2022-09-20T07:48:14.864Z,74.37
2022-09-20T07:53:17.641Z,73.29
2022-09-20T07:58:20.465Z,72.62
2022-09-20T08:03:23.866Z,71.39
2022-09-20T08:08:26.740Z,71.39
2022-09-20T08:18:57.271Z,69.66
2022-09-20T08:24:00.874Z,70.32
2022-09-20T08:29:06.412Z,70.22
2022-09-20T08:34:12.647Z,71.25
2022-09-20T08:45:00.426Z,69.12
2022-09-20T08:50:10.100Z,68.89
2022-09-20T08:55:24.325Z,68.81
2022-09-20T09:00:35.153Z,68.65
2022-09-20T09:05:44.597Z,68.54
2022-09-20T09:10:54.952Z,68.26
2022-09-20T09:16:12.233Z,67.64
2022-09-20T09:21:28.076Z,66.94
2022-09-20T09:26:41.318Z,66.53
2022-09-20T09:31:52.824Z,66.26
2022-09-20T09:36:57.438Z,66.50
2022-09-20T09:42:01.382Z,67.83
2022-09-20T09:47:04.537Z,65.47
2022-09-20T09:52:24.863Z,64.30
2022-09-20T09:58:00.625Z,64.82
2022-09-20T10:03:33.354Z,64.28
2022-09-20T10:09:08.199Z,63.58
2022-09-20T10:14:35.915Z,64.75
2022-09-20T10:20:28.230Z,63.77
2022-09-20T10:25:43.317Z,62.29
2022-09-20T10:31:37.298Z,59.91
2022-09-20T10:36:55.970Z,59.64
2022-09-20T10:42:35.508Z,58.58
2022-09-20T10:48:03.106Z,57.92
2022-09-20T10:53:18.132Z,56.62
2022-09-20T10:59:05.603Z,55.93
2022-09-20T11:04:37.354Z,52.31
2022-09-20T11:09:50.542Z,50.68
2022-09-20T11:15:04.447Z,50.50
2022-09-20T11:20:27.876Z,49.72
2022-09-20T11:25:37.839Z,49.62
2022-09-20T11:31:02.381Z,47.26
2022-09-20T11:36:14.231Z,46.41
2022-09-20T11:41:32.302Z,45.09
2022-09-20T11:47:01.328Z,45.49
2022-09-20T11:52:13.359Z,46.01
2022-09-20T11:57:17.027Z,46.51
2022-09-20T12:02:51.617Z,45.06
2022-09-20T12:07:58.617Z,45.49
2022-09-20T12:13:08.786Z,46.37
2022-09-20T12:18:36.459Z,46.54
2022-09-20T12:23:42.639Z,46.24
2022-09-20T12:28:51.510Z,48.68
2022-09-20T12:34:13.298Z,49.25
2022-09-20T12:39:23.311Z,50.56
2022-09-20T12:44:40.570Z,52.45
2022-09-20T12:50:04.586Z,53.61
2022-09-20T12:55:11.268Z,56.21
2022-09-20T13:00:54.424Z,58.79
2022-09-20T13:06:06.530Z,59.75
2022-09-20T13:11:18.738Z,61.09
2022-09-20T13:16:45.550Z,61.07
2022-09-20T13:22:14.291Z,60.54
2022-09-20T13:27:32.558Z,60.79
2022-09-20T13:32:35.913Z,61.16
2022-09-20T13:38:05.757Z,61.66
2022-09-20T13:43:33.732Z,59.64
2022-09-20T13:48:36.836Z,58.40
2022-09-20T13:53:41.906Z,58.11
2022-09-20T13:58:45.407Z,56.27
2022-09-20T14:03:48.592Z,55.33
2022-09-20T14:08:51.871Z,55.97
2022-09-20T14:14:01.736Z,56.67
2022-09-20T14:19:09.864Z,56.38
2022-09-20T14:24:59.595Z,56.80
2022-09-20T14:30:03.974Z,57.15
2022-09-20T14:35:20.663Z,57.47
2022-09-20T14:40:33.407Z,58.34
2022-09-20T14:45:43.279Z,58.67
2022-09-20T14:51:18.150Z,58.77
2022-09-20T14:56:35.834Z,59.29
2022-09-20T15:01:45.113Z,59.75
2022-09-20T15:06:50.176Z,60.76
2022-09-20T15:12:10.438Z,61.19
2022-09-20T15:17:23.626Z,61.63
2022-09-20T15:22:27.511Z,61.15
2022-09-20T15:27:30.300Z,61.77
2022-09-20T15:32:33.165Z,62.64
2022-09-20T15:37:36.464Z,63.66
2022-09-20T15:42:41.621Z,65.06
2022-09-20T15:47:44.714Z,66.06
2022-09-20T15:52:51.349Z,67.00
2022-09-20T15:57:54.190Z,68.07
2022-09-20T16:02:56.872Z,68.98
2022-09-20T16:07:59.730Z,69.74
2022-09-20T16:13:02.960Z,70.49
2022-09-20T16:18:24.798Z,71.64
2022-09-20T16:23:27.481Z,71.85
2022-09-20T16:28:30.978Z,71.88
2022-09-20T16:33:36.411Z,72.06
2022-09-20T16:38:44.997Z,71.84
2022-09-20T16:43:50.167Z,71.56
2022-09-20T16:48:55.023Z,71.88
2022-09-20T16:53:57.998Z,71.57
2022-09-20T16:59:05.630Z,71.15
2022-09-20T17:04:09.655Z,71.37
2022-09-20T17:09:13.899Z,71.37
2022-09-20T17:14:20.399Z,71.79
2022-09-20T17:19:23.326Z,71.86
2022-09-20T17:24:26.424Z,72.17
2022-09-20T17:29:29.193Z,72.15
2022-09-20T17:34:31.888Z,72.67
2022-09-20T17:39:34.812Z,73.05
2022-09-20T17:44:39.178Z,73.48
2022-09-20T17:49:43.188Z,73.72
2022-09-20T17:54:45.880Z,73.82
2022-09-20T17:59:48.621Z,73.96
2022-09-20T18:04:52.704Z,73.66
2022-09-20T18:09:56.070Z,73.62
2022-09-20T18:14:59.057Z,73.40
2022-09-20T18:20:02.132Z,73.24
2022-09-20T18:25:05.618Z,73.17
2022-09-20T18:30:09.231Z,73.32
2022-09-20T18:35:11.895Z,73.30
2022-09-20T18:40:14.795Z,74.11
2022-09-20T18:45:20.528Z,74.33
2022-09-20T18:50:26.579Z,74.65
2022-09-20T18:55:30.043Z,74.72
2022-09-20T19:00:33.397Z,75.04
2022-09-20T19:05:52.432Z,74.34
2022-09-20T19:11:03.901Z,74.03
2022-09-20T19:16:21.080Z,73.67
2022-09-20T19:21:45.426Z,73.44
2022-09-20T19:26:48.971Z,73.45
2022-09-20T19:31:58.913Z,73.65
2022-09-20T19:37:51.640Z,74.07
2022-09-20T19:43:19.446Z,74.70
2022-09-20T19:48:40.369Z,75.22
2022-09-20T19:53:43.619Z,75.92
2022-09-20T19:58:47.485Z,76.35
2022-09-20T20:03:52.211Z,76.74
2022-09-20T20:09:21.272Z,77.26
2022-09-20T20:14:40.481Z,77.37
2022-09-20T20:20:29.115Z,77.38
2022-09-20T20:25:41.623Z,77.57
2022-09-20T20:30:44.710Z,78.06
2022-09-20T20:35:58.947Z,78.28
2022-09-20T20:41:14.714Z,78.63
2022-09-20T20:46:21.007Z,79.09
2022-09-20T20:51:24.142Z,79.55
2022-09-20T20:56:30.096Z,79.81
2022-09-20T21:01:38.677Z,80.00
2022-09-20T21:06:42.306Z,80.23
2022-09-20T21:11:46.626Z,80.46
2022-09-20T21:16:52.150Z,80.52
2022-09-20T21:21:54.849Z,80.53
2022-09-20T21:26:57.579Z,80.74
2022-09-20T21:32:00.272Z,80.67
2022-09-20T21:37:03.196Z,81.25
2022-09-20T21:42:07.981Z,81.15
2022-09-20T21:47:10.694Z,81.42
2022-09-20T21:52:14.255Z,81.29
2022-09-20T21:57:16.955Z,81.41
2022-09-20T22:02:19.711Z,81.25
2022-09-20T22:07:23.085Z,81.18
2022-09-20T22:12:25.846Z,81.21
2022-09-20T22:17:29.543Z,81.14
2022-09-20T22:22:32.353Z,80.87
2022-09-20T22:27:35.103Z,80.77
2022-09-20T22:32:37.820Z,80.52
2022-09-20T22:37:40.796Z,80.81
2022-09-20T22:42:43.498Z,81.17
2022-09-20T22:47:46.693Z,81.66
2022-09-20T22:52:49.497Z,82.38
2022-09-20T22:57:52.818Z,82.96
2022-09-20T23:03:01.559Z,83.50
2022-09-20T23:08:05.473Z,83.49
2022-09-20T23:13:08.241Z,83.62
2022-09-20T23:18:11.535Z,83.81
2022-09-20T23:23:23.553Z,83.62
2022-09-20T23:28:27.273Z,83.47
2022-09-20T23:33:30.014Z,83.08
2022-09-20T23:38:32.728Z,83.09
2022-09-20T23:43:36.954Z,83.34
2022-09-20T23:48:44.213Z,83.25
2022-09-20T23:53:47.227Z,83.32
2022-09-20T23:58:50.837Z,83.54
